Terminal Aerodrome Forecast
Issued by NWS Atlanta, GA

Current Version | Previous Version | Text Only | Print | Product List | Glossary On
Versions: 1 2 3 4 5 6 7 8 9 10 11 12 13 14 15 16 17 18 19 20 21 22 23 24 25 26 27 28 29 30 31 32 33 34 35 36 37 38 39 40 41 42 43 44 45
000
FTUS42 KFFC 051345 AAB
TAFATL
TAF AMD
KATL 051345Z 0514/0618 32010KT 5SM -RA OVC003
     FM051600 32010G20KT 6SM -RA OVC008
     FM052200 33010G20KT P6SM VCSH OVC012
     FM060100 34008G15KT P6SM OVC025
     FM060600 34008KT P6SM BKN025
     FM061500 02006KT P6SM SCT025=

USA.gov is the U.S. government's official web portal to all federal, state and local government web resources and services.